Time;durP1;ratioP1;P1;durP2;ratioP2;P2;SDS_P1;SDS_P2;PMS_P1;PMS_P2;Temp;Humidity;BMP_temperature;BMP_pressure;BME280_temperature;BME280_humidity;BME280_pressure;Samples;Min_cycle;Max_cycle;Signal;HPM_P1;HPM_P2
2022/01/29 00:00:38;;;;;;;18.17;12.33;;;;;21.10;101808.00;;;;2069158;28;20221;-62
2022/01/29 00:01:39;;;;;;;18.67;13.33;;;;;21.10;101809.00;;;;2068874;28;20219;-62
2022/01/29 00:02:40;;;;;;;13.90;11.70;;;;;21.20;101798.00;;;;2068914;28;20241;-62
2022/01/29 00:03:40;;;;;;;14.73;12.85;;;;;21.10;101796.00;;;;2068528;28;20210;-62
2022/01/29 00:04:40;;;;;;;14.43;12.43;;;;;21.00;101795.00;;;;2067352;28;20297;-62
2022/01/29 00:05:41;;;;;;;14.80;11.80;;;;;21.10;101800.00;;;;2067402;28;20213;-62
2022/01/29 00:06:41;;;;;;;12.93;11.50;;;;;21.10;101796.00;;;;2066587;28;20683;-62
2022/01/29 00:07:42;;;;;;;12.87;11.37;;;;;21.20;101796.00;;;;2067376;28;20223;-62
2022/01/29 00:08:43;;;;;;;16.07;12.90;;;;;21.10;101796.00;;;;2068849;28;20222;-62
2022/01/29 00:09:45;;;;;;;15.93;11.80;;;;;21.10;101788.00;;;;2068596;28;20893;-62
2022/01/29 00:10:47;;;;;;;12.43;11.13;;;;;21.10;101787.00;;;;2068491;28;20452;-62
2022/01/29 00:11:48;;;;;;;13.60;12.15;;;;;21.10;101798.00;;;;2059187;28;20222;-62
2022/01/29 00:12:48;;;;;;;12.07;10.83;;;;;21.10;101784.00;;;;2068219;28;20304;-62
2022/01/29 00:13:49;;;;;;;13.50;11.30;;;;;21.10;101792.00;;;;2067936;28;20222;-62
2022/01/29 00:14:49;;;;;;;13.17;11.00;;;;;21.10;101788.00;;;;2067937;28;20304;-62
2022/01/29 00:15:49;;;;;;;13.97;10.70;;;;;21.10;101791.00;;;;2068784;28;20223;-62
2022/01/29 00:16:49;;;;;;;12.60;11.10;;;;;21.10;101793.00;;;;2069343;28;20230;-62
2022/01/29 00:17:50;;;;;;;13.43;11.30;;;;;21.10;101791.00;;;;2069284;28;20265;-62
2022/01/29 00:18:50;;;;;;;12.50;11.03;;;;;21.10;101785.00;;;;2069312;28;20218;-62
2022/01/29 00:19:50;;;;;;;11.60;10.20;;;;;21.10;101781.00;;;;2069115;28;20229;-62
2022/01/29 00:20:51;;;;;;;11.60;10.40;;;;;21.10;101791.00;;;;2067823;28;20218;-62
2022/01/29 00:21:51;;;;;;;11.50;10.40;;;;;21.10;101775.00;;;;2067561;28;20457;-62
2022/01/29 00:22:51;;;;;;;12.17;9.67;;;;;21.10;101779.00;;;;2068499;28;20210;-62
2022/01/29 00:23:52;;;;;;;11.00;9.63;;;;;21.10;101779.00;;;;2068279;28;20218;-62
2022/01/29 00:24:52;;;;;;;11.83;10.67;;;;;21.10;101769.00;;;;2069041;28;20222;-62
2022/01/29 00:25:53;;;;;;;12.80;10.17;;;;;21.10;101783.00;;;;2060446;28;20220;-62
2022/01/29 00:26:53;;;;;;;12.03;10.83;;;;;21.10;101777.00;;;;2060623;28;20228;-62
2022/01/29 00:27:54;;;;;;;11.80;10.20;;;;;21.10;101775.00;;;;2069164;28;20296;-62
2022/01/29 00:28:57;;;;;;;13.57;11.40;;;;;21.10;101772.00;;;;2068563;28;20242;-62
2022/01/29 00:29:58;;;;;;;11.27;10.10;;;;;21.10;101767.00;;;;2068375;28;20215;-62
2022/01/29 00:30:58;;;;;;;11.55;10.10;;;;;21.10;101781.00;;;;2068173;28;20701;-63
2022/01/29 00:31:59;;;;;;;13.90;10.80;;;;;21.00;101774.00;;;;2065515;28;20247;-62
2022/01/29 00:32:59;;;;;;;11.30;10.20;;;;;21.00;101766.00;;;;2067299;28;20670;-63
2022/01/29 00:33:59;;;;;;;12.03;10.33;;;;;21.00;101773.00;;;;2071156;28;20580;-63
2022/01/29 00:35:00;;;;;;;9.87;8.93;;;;;21.00;101770.00;;;;2069860;28;20241;-62
2022/01/29 00:36:00;;;;;;;10.80;9.70;;;;;21.00;101765.00;;;;2069030;28;20224;-63
2022/01/29 00:37:00;;;;;;;11.43;9.40;;;;;21.00;101762.00;;;;2068624;28;20218;-62
2022/01/29 00:38:01;;;;;;;11.23;9.70;;;;;21.00;101758.00;;;;2069122;28;20211;-63
2022/01/29 00:39:01;;;;;;;11.93;10.33;;;;;21.00;101755.00;;;;2069129;28;20797;-63
2022/01/29 00:40:02;;;;;;;12.07;9.87;;;;;21.00;101751.00;;;;2068426;28;20253;-63
2022/01/29 00:41:02;;;;;;;11.83;10.00;;;;;21.00;101762.00;;;;2067873;28;20784;-62
2022/01/29 00:42:04;;;;;;;11.50;10.30;;;;;21.00;101768.00;;;;2058904;28;20454;-63
2022/01/29 00:43:04;;;;;;;11.18;10.05;;;;;21.00;101766.00;;;;2059282;28;20206;-63
2022/01/29 00:44:05;;;;;;;11.07;9.97;;;;;21.00;101768.00;;;;2067217;28;20215;-63
2022/01/29 00:45:06;;;;;;;11.50;10.30;;;;;21.00;101759.00;;;;2062968;28;20222;-62
2022/01/29 00:46:06;;;;;;;10.55;9.55;;;;;21.00;101760.00;;;;2067937;28;20215;-62
2022/01/29 00:47:06;;;;;;;11.00;9.83;;;;;21.00;101762.00;;;;2065508;28;20268;-63
2022/01/29 00:48:07;;;;;;;10.10;9.00;;;;;21.00;101752.00;;;;2068374;28;20215;-62
2022/01/29 00:49:08;;;;;;;12.73;10.07;;;;;21.00;101756.00;;;;2067414;28;20265;-62
2022/01/29 00:50:09;;;;;;;11.10;9.57;;;;;21.00;101740.00;;;;2064681;28;20219;-62
2022/01/29 00:51:10;;;;;;;12.40;10.23;;;;;21.00;101731.00;;;;2068173;28;20215;-63
2022/01/29 00:52:10;;;;;;;11.27;9.20;;;;;21.00;101734.00;;;;2064488;28;20332;-62
2022/01/29 00:53:10;;;;;;;12.33;10.10;;;;;21.00;101730.00;;;;2068376;28;20644;-62
2022/01/29 00:54:11;;;;;;;11.17;10.00;;;;;21.00;101726.00;;;;2067778;28;20222;-62
2022/01/29 00:55:11;;;;;;;13.10;11.13;;;;;21.00;101718.00;;;;2067850;28;20329;-62
2022/01/29 00:56:11;;;;;;;10.30;9.20;;;;;21.00;101721.00;;;;2067763;28;20219;-62
2022/01/29 00:57:12;;;;;;;11.00;9.80;;;;;21.00;101727.00;;;;2057265;28;20734;-62
2022/01/29 00:58:12;;;;;;;10.20;9.20;;;;;21.00;101742.00;;;;2058809;28;20714;-62
2022/01/29 00:59:12;;;;;;;11.57;10.03;;;;;21.00;101726.00;;;;2069025;28;20578;-62
2022/01/29 01:00:13;;;;;;;11.70;10.27;;;;;21.00;101727.00;;;;2064603;28;20700;-62
2022/01/29 01:01:14;;;;;;;11.67;9.93;;;;;21.00;101726.00;;;;2067990;28;20641;-62
2022/01/29 01:02:14;;;;;;;11.27;9.50;;;;;21.00;101715.00;;;;2067636;28;20977;-62
2022/01/29 01:03:14;;;;;;;10.77;9.67;;;;;21.00;101718.00;;;;2067856;28;20218;-62
2022/01/29 01:04:15;;;;;;;12.67;10.47;;;;;21.00;101724.00;;;;2067684;28;20226;-62
2022/01/29 01:05:15;;;;;;;11.77;10.57;;;;;21.00;101723.00;;;;2068442;28;20210;-62
2022/01/29 01:06:15;;;;;;;13.10;10.43;;;;;21.00;101713.00;;;;2068465;28;20277;-62
2022/01/29 01:07:16;;;;;;;11.00;9.90;;;;;21.00;101711.00;;;;2068115;28;20210;-62
2022/01/29 01:08:16;;;;;;;10.73;9.57;;;;;21.00;101706.00;;;;2068215;28;20214;-62
2022/01/29 01:09:16;;;;;;;10.93;9.90;;;;;20.90;101706.00;;;;2068328;28;20214;-62
2022/01/29 01:10:17;;;;;;;10.83;9.50;;;;;20.90;101709.00;;;;2068411;28;20230;-62
2022/01/29 01:11:17;;;;;;;10.67;9.57;;;;;20.90;101706.00;;;;2069048;28;20273;-62
2022/01/29 01:12:17;;;;;;;11.10;10.00;;;;;21.00;101705.00;;;;2068492;28;20215;-62
2022/01/29 01:13:18;;;;;;;10.80;9.70;;;;;20.90;101708.00;;;;2068987;28;20221;-62
2022/01/29 01:14:18;;;;;;;10.80;9.70;;;;;20.90;101701.00;;;;2069141;28;20214;-62
2022/01/29 01:15:18;;;;;;;13.17;11.60;;;;;20.90;101711.00;;;;2067843;28;20240;-62
2022/01/29 01:16:19;;;;;;;10.97;9.87;;;;;20.90;101714.00;;;;2068421;28;20214;-62
2022/01/29 01:17:19;;;;;;;11.07;9.50;;;;;20.90;101715.00;;;;2062541;28;20248;-61
2022/01/29 01:18:19;;;;;;;11.20;9.93;;;;;20.90;101710.00;;;;2068332;28;20211;-62
2022/01/29 01:19:25;;;;;;;10.33;9.27;;;;;20.90;101705.00;;;;2066304;28;20224;-61
2022/01/29 01:20:25;;;;;;;11.13;9.57;;;;;20.90;101723.00;;;;2056365;28;20225;-62
2022/01/29 01:21:26;;;;;;;12.97;10.20;;;;;20.90;101714.00;;;;2066133;28;20221;-61
2022/01/29 01:22:26;;;;;;;11.00;9.87;;;;;20.90;101716.00;;;;2075517;28;20272;-62
2022/01/29 01:23:26;;;;;;;11.23;9.50;;;;;20.90;101709.00;;;;2072007;28;20222;-61
2022/01/29 01:24:27;;;;;;;11.30;10.00;;;;;20.90;101716.00;;;;2067396;28;20214;-62
2022/01/29 01:25:27;;;;;;;12.27;9.07;;;;;20.90;101713.00;;;;2067891;28;20254;-61
2022/01/29 01:26:27;;;;;;;14.67;10.43;;;;;20.90;101701.00;;;;2059970;28;20225;-62
2022/01/29 01:27:28;;;;;;;11.77;9.77;;;;;20.90;101695.00;;;;2068401;28;20231;-61
2022/01/29 01:28:28;;;;;;;11.90;9.23;;;;;20.90;101691.00;;;;2068482;28;20936;-61
2022/01/29 01:29:29;;;;;;;12.23;10.50;;;;;20.90;101693.00;;;;2063024;28;20675;-61
2022/01/29 01:30:29;;;;;;;11.63;10.40;;;;;20.90;101692.00;;;;2067640;28;20214;-62
2022/01/29 01:31:29;;;;;;;11.97;10.77;;;;;20.90;101674.00;;;;2067510;28;20221;-61
2022/01/29 01:32:30;;;;;;;10.90;9.80;;;;;20.90;101687.00;;;;2068106;28;20224;-61
2022/01/29 01:33:30;;;;;;;13.70;10.33;;;;;20.90;101678.00;;;;2067492;28;20229;-62
2022/01/29 01:34:34;;;;;;;11.23;9.97;;;;;20.90;101674.00;;;;2067401;28;20383;-61
2022/01/29 01:35:49;;;;;;;12.10;10.23;;;;;20.90;101672.00;;;;2064625;28;20213;-62
2022/01/29 01:36:58;;;;;;;11.13;9.43;;;;;20.90;101676.00;;;;2067934;28;20680;-61
2022/01/29 01:38:09;;;;;;;11.65;10.35;;;;;20.90;101676.00;;;;2065302;28;20692;-61
2022/01/29 01:39:12;;;;;;;11.90;10.43;;;;;20.90;101690.00;;;;2058575;28;20304;-61
2022/01/29 01:40:13;;;;;;;12.35;10.70;;;;;20.90;101668.00;;;;2075735;28;20233;-62
2022/01/29 01:41:17;;;;;;;11.50;10.30;;;;;20.90;101676.00;;;;2070874;28;20264;-62
2022/01/29 01:42:17;;;;;;;13.93;10.30;;;;;20.80;101671.00;;;;2066696;28;20214;-61
2022/01/29 01:43:17;;;;;;;14.60;10.80;;;;;20.90;101672.00;;;;2068211;28;20686;-61
2022/01/29 01:44:20;;;;;;;12.40;10.40;;;;;20.90;101665.00;;;;2068136;28;20696;-62
2022/01/29 01:45:20;;;;;;;11.00;9.82;;;;;20.90;101657.00;;;;2068141;28;20214;-62
2022/01/29 01:46:21;;;;;;;12.40;11.20;;;;;20.80;101648.00;;;;2068464;28;20207;-62
2022/01/29 01:47:21;;;;;;;12.03;10.77;;;;;20.80;101646.00;;;;2067289;28;20233;-62
2022/01/29 01:48:22;;;;;;;10.80;9.70;;;;;20.80;101648.00;;;;2067861;28;20239;-61
2022/01/29 01:49:22;;;;;;;11.88;10.43;;;;;20.80;101651.00;;;;2068523;28;20284;-61
2022/01/29 01:50:23;;;;;;;11.20;10.10;;;;;20.80;101643.00;;;;2058587;28;20615;-62
2022/01/29 01:51:24;;;;;;;12.03;10.77;;;;;20.80;101642.00;;;;2066824;28;20732;-62
2022/01/29 01:52:24;;;;;;;11.40;10.30;;;;;20.80;101636.00;;;;2066878;28;20218;-62
2022/01/29 01:53:24;;;;;;;11.30;9.30;;;;;20.80;101640.00;;;;2067987;28;20490;-62
2022/01/29 01:54:25;;;;;;;12.97;10.80;;;;;20.80;101646.00;;;;2068190;28;20223;-62
2022/01/29 01:55:25;;;;;;;12.07;10.77;;;;;20.80;101636.00;;;;2068772;28;20715;-62
2022/01/29 01:56:26;;;;;;;12.47;10.50;;;;;20.80;101638.00;;;;2068600;28;20757;-62
2022/01/29 01:57:26;;;;;;;12.37;10.63;;;;;20.80;101629.00;;;;2064058;28;20585;-61
2022/01/29 01:58:26;;;;;;;11.40;10.30;;;;;20.80;101624.00;;;;2064701;28;20614;-62
2022/01/29 01:59:27;;;;;;;10.90;9.17;;;;;20.80;101632.00;;;;2068814;28;20211;-61
2022/01/29 02:00:28;;;;;;;11.48;9.85;;;;;20.80;101623.00;;;;2068401;28;20211;-62
2022/01/29 02:01:28;;;;;;;11.73;10.53;;;;;20.80;101634.00;;;;2068697;28;20275;-61
2022/01/29 02:02:28;;;;;;;11.20;9.97;;;;;20.80;101637.00;;;;2066947;28;20241;-62
2022/01/29 02:03:29;;;;;;;10.60;9.60;;;;;20.80;101629.00;;;;2067699;28;20210;-62
2022/01/29 02:04:30;;;;;;;10.33;9.30;;;;;20.80;101630.00;;;;2067993;28;20203;-61
2022/01/29 02:05:30;;;;;;;10.95;9.63;;;;;20.80;101624.00;;;;2059104;28;20215;-62
2022/01/29 02:06:31;;;;;;;10.53;9.47;;;;;20.80;101632.00;;;;2059171;28;20658;-61
2022/01/29 02:07:31;;;;;;;11.17;9.97;;;;;20.80;101622.00;;;;2068434;28;20586;-62
2022/01/29 02:08:31;;;;;;;10.47;9.43;;;;;20.80;101628.00;;;;2067855;28;20215;-62
2022/01/29 02:09:33;;;;;;;11.83;9.80;;;;;20.70;101627.00;;;;2067891;28;20215;-62
2022/01/29 02:10:33;;;;;;;10.93;9.77;;;;;20.80;101631.00;;;;2068374;28;20595;-62
2022/01/29 02:11:33;;;;;;;12.13;9.83;;;;;20.80;101636.00;;;;2068039;28;20229;-61
2022/01/29 02:12:56;;;;;;;9.80;8.80;;;;;20.80;101631.00;;;;2067858;28;20229;-62
2022/01/29 02:13:59;;;;;;;11.45;10.25;;;;;20.80;101627.00;;;;2064792;28;20217;-61
2022/01/29 02:15:04;;;;;;;13.68;10.43;;;;;20.70;101621.00;;;;2067910;28;20265;-62
2022/01/29 02:16:05;;;;;;;11.13;10.05;;;;;20.70;101619.00;;;;2068181;28;20745;-62
2022/01/29 02:17:06;;;;;;;10.70;9.60;;;;;20.70;101624.00;;;;2065398;28;20214;-62
2022/01/29 02:18:12;;;;;;;11.60;10.17;;;;;20.70;101618.00;;;;2068164;28;20466;-62
2022/01/29 02:19:13;;;;;;;10.10;9.20;;;;;20.70;101620.00;;;;2067686;28;20217;-62
2022/01/29 02:20:14;;;;;;;11.53;10.37;;;;;20.70;101607.00;;;;2067612;28;20213;-62
2022/01/29 02:21:15;;;;;;;11.52;9.95;;;;;20.70;101607.00;;;;2067575;28;20213;-62
2022/01/29 02:22:16;;;;;;;10.75;9.75;;;;;20.70;101606.00;;;;2065682;28;21065;-62
2022/01/29 02:23:17;;;;;;;12.20;11.00;;;;;20.70;101602.00;;;;2067654;28;20214;-62
2022/01/29 02:24:18;;;;;;;11.85;10.65;;;;;20.70;101614.00;;;;2068444;28;20277;-62
2022/01/29 02:25:31;;;;;;;11.67;10.40;;;;;20.70;101606.00;;;;2068381;28;20777;-62
2022/01/29 02:26:31;;;;;;;10.95;9.85;;;;;20.70;101596.00;;;;2064749;28;20213;-62
2022/01/29 02:27:31;;;;;;;11.43;10.30;;;;;20.70;101590.00;;;;2064336;28;20226;-62
2022/01/29 02:28:32;;;;;;;11.03;9.97;;;;;20.70;101595.00;;;;2067063;28;20236;-62
2022/01/29 02:29:33;;;;;;;10.80;9.80;;;;;20.70;101593.00;;;;2067976;28;20223;-62
2022/01/29 02:30:35;;;;;;;11.38;10.23;;;;;20.70;101598.00;;;;2068151;28;20215;-62
2022/01/29 02:31:35;;;;;;;10.43;9.32;;;;;20.70;101596.00;;;;2068450;28;20234;-62
2022/01/29 02:32:41;;;;;;;11.33;10.13;;;;;20.70;101607.00;;;;2060256;28;20222;-62
2022/01/29 02:33:43;;;;;;;10.68;9.68;;;;;20.70;101600.00;;;;2064415;28;20589;-62
2022/01/29 02:34:44;;;;;;;10.52;9.50;;;;;20.70;101595.00;;;;2067624;28;20218;-62
2022/01/29 02:35:48;;;;;;;10.83;9.83;;;;;20.70;101593.00;;;;2067627;28;20214;-62
2022/01/29 02:36:50;;;;;;;10.50;9.43;;;;;20.70;101587.00;;;;2060267;28;20464;-62
2022/01/29 02:37:52;;;;;;;12.50;10.50;;;;;20.60;101587.00;;;;2066851;28;20745;-62
2022/01/29 02:38:52;;;;;;;11.40;10.25;;;;;20.70;101569.00;;;;2066944;28;20302;-61
2022/01/29 02:39:52;;;;;;;10.50;9.20;;;;;20.70;101576.00;;;;2067858;28;20215;-62
2022/01/29 02:40:57;;;;;;;11.77;10.30;;;;;20.70;101570.00;;;;2068149;28;20207;-62
2022/01/29 02:41:58;;;;;;;10.88;9.85;;;;;20.60;101575.00;;;;2065328;28;20226;-62
2022/01/29 02:42:58;;;;;;;10.63;9.13;;;;;20.60;101568.00;;;;2067755;28;20202;-62
2022/01/29 02:44:03;;;;;;;9.77;8.80;;;;;20.70;101566.00;;;;2051026;28;20208;-62
2022/01/29 02:45:04;;;;;;;10.20;9.20;;;;;20.70;101560.00;;;;2059512;28;20214;-62
2022/01/29 02:46:08;;;;;;;10.60;9.50;;;;;20.70;101565.00;;;;2067528;28;20774;-62
2022/01/29 02:47:25;;;;;;;10.90;9.80;;;;;20.70;101562.00;;;;2067122;28;20211;-61
2022/01/29 02:48:26;;;;;;;10.63;9.52;;;;;20.60;101557.00;;;;2066979;28;20217;-62
2022/01/29 02:49:26;;;;;;;11.10;10.03;;;;;20.60;101558.00;;;;2067240;28;20574;-62
2022/01/29 02:50:26;;;;;;;10.37;9.33;;;;;20.60;101560.00;;;;2066746;28;20209;-62
2022/01/29 02:51:27;;;;;;;10.00;8.93;;;;;20.60;101556.00;;;;2066387;28;20250;-62
2022/01/29 02:52:27;;;;;;;11.93;9.60;;;;;20.60;101560.00;;;;2066142;28;20246;-62
2022/01/29 02:53:28;;;;;;;12.80;8.93;;;;;20.60;101558.00;;;;2067877;28;20210;-61
2022/01/29 02:54:29;;;;;;;10.23;9.23;;;;;20.60;101558.00;;;;2057492;28;20226;-62
2022/01/29 02:55:30;;;;;;;10.45;9.35;;;;;20.60;101558.00;;;;2067508;28;20298;-62
2022/01/29 02:56:30;;;;;;;10.00;8.90;;;;;20.60;101553.00;;;;2065796;28;20622;-62
2022/01/29 02:57:31;;;;;;;11.20;9.60;;;;;20.60;101549.00;;;;2064750;28;20257;-62
2022/01/29 02:58:31;;;;;;;10.10;9.00;;;;;20.60;101551.00;;;;2066985;28;20202;-62
2022/01/29 02:59:31;;;;;;;10.30;9.30;;;;;20.60;101546.00;;;;2067071;28;20235;-61
2022/01/29 03:00:32;;;;;;;10.17;8.87;;;;;20.60;101546.00;;;;2067514;28;20221;-62
2022/01/29 03:01:32;;;;;;;10.67;9.57;;;;;20.60;101542.00;;;;2067185;28;20708;-62
2022/01/29 03:02:32;;;;;;;10.17;9.10;;;;;20.60;101548.00;;;;2066979;28;20212;-62
2022/01/29 03:03:33;;;;;;;10.10;9.10;;;;;20.60;101540.00;;;;2066910;28;20210;-62
2022/01/29 03:04:33;;;;;;;9.73;8.83;;;;;20.60;101541.00;;;;2066349;28;20309;-62
2022/01/29 03:05:34;;;;;;;11.30;9.70;;;;;20.60;101540.00;;;;2066664;28;20877;-62
2022/01/29 03:06:34;;;;;;;10.50;9.20;;;;;20.60;101537.00;;;;2067864;28;20237;-62
2022/01/29 03:07:35;;;;;;;11.33;10.23;;;;;20.60;101524.00;;;;2065436;28;20234;-62
2022/01/29 03:08:36;;;;;;;10.60;9.03;;;;;20.60;101525.00;;;;2067610;28;20213;-62
2022/01/29 03:09:36;;;;;;;10.40;9.30;;;;;20.60;101541.00;;;;2067478;28;20475;-62
2022/01/29 03:10:37;;;;;;;10.17;9.10;;;;;20.60;101546.00;;;;2065972;28;20224;-62
2022/01/29 03:11:37;;;;;;;10.20;8.90;;;;;20.60;101542.00;;;;2066901;28;20217;-62
2022/01/29 03:12:40;;;;;;;10.93;9.30;;;;;20.60;101541.00;;;;2059618;28;20211;-62
2022/01/29 03:13:40;;;;;;;11.10;10.00;;;;;20.60;101543.00;;;;2066632;28;20215;-62
2022/01/29 03:14:40;;;;;;;12.60;9.17;;;;;20.60;101543.00;;;;2067044;28;20237;-62
2022/01/29 03:15:41;;;;;;;10.43;9.23;;;;;20.60;101551.00;;;;2067887;28;20211;-62
2022/01/29 03:16:41;;;;;;;10.13;9.13;;;;;20.60;101540.00;;;;2067896;28;20214;-62
2022/01/29 03:17:42;;;;;;;10.17;9.17;;;;;20.60;101550.00;;;;2067364;28;20214;-62
2022/01/29 03:18:42;;;;;;;9.85;8.85;;;;;20.60;101548.00;;;;2066921;28;20213;-62
2022/01/29 03:19:43;;;;;;;10.47;9.37;;;;;20.60;101539.00;;;;2066923;28;20577;-62
2022/01/29 03:20:43;;;;;;;9.37;8.37;;;;;20.60;101534.00;;;;2064939;28;20559;-62
2022/01/29 03:21:43;;;;;;;9.90;8.87;;;;;20.60;101539.00;;;;2066962;28;20748;-62
2022/01/29 03:22:44;;;;;;;11.27;10.10;;;;;20.50;101531.00;;;;2059298;28;20687;-62
2022/01/29 03:23:44;;;;;;;9.70;8.70;;;;;20.50;101527.00;;;;2067252;28;20300;-62
2022/01/29 03:24:44;;;;;;;9.87;8.97;;;;;20.50;101524.00;;;;2067246;28;20238;-62
2022/01/29 03:25:45;;;;;;;10.30;9.23;;;;;20.60;101519.00;;;;2067071;28;20274;-62
2022/01/29 03:26:45;;;;;;;9.57;8.67;;;;;20.50;101523.00;;;;2066441;28;20214;-62
2022/01/29 03:27:45;;;;;;;10.30;9.13;;;;;20.50;101524.00;;;;2064444;28;20690;-62
2022/01/29 03:28:46;;;;;;;10.20;9.20;;;;;20.50;101517.00;;;;2062649;28;20690;-62
2022/01/29 03:29:46;;;;;;;10.90;9.50;;;;;20.50;101519.00;;;;2073875;28;20228;-62
2022/01/29 03:30:46;;;;;;;10.43;9.37;;;;;20.50;101515.00;;;;2068260;28;20215;-62
2022/01/29 03:31:47;;;;;;;10.17;8.90;;;;;20.50;101514.00;;;;2067749;28;20686;-62
2022/01/29 03:32:47;;;;;;;10.37;8.40;;;;;20.50;101521.00;;;;2064518;28;20227;-62
2022/01/29 03:33:47;;;;;;;9.23;8.33;;;;;20.50;101526.00;;;;2067306;28;20226;-62
2022/01/29 03:34:48;;;;;;;9.60;8.60;;;;;20.50;101522.00;;;;2067218;28;20335;-62
2022/01/29 03:35:48;;;;;;;9.57;8.60;;;;;20.50;101519.00;;;;2065714;28;20352;-62
2022/01/29 03:36:49;;;;;;;10.63;8.47;;;;;20.50;101519.00;;;;2057901;28;20681;-62
2022/01/29 03:37:49;;;;;;;10.57;9.47;;;;;20.50;101512.00;;;;2063443;28;20230;-62
2022/01/29 03:38:50;;;;;;;10.03;8.40;;;;;20.50;101514.00;;;;2066173;28;20223;-62
2022/01/29 03:39:51;;;;;;;9.30;8.40;;;;;20.50;101507.00;;;;2062976;28;20284;-62
2022/01/29 03:40:52;;;;;;;8.80;7.95;;;;;20.50;101510.00;;;;2064247;28;20578;-61
2022/01/29 03:41:54;;;;;;;10.40;9.30;;;;;20.50;101505.00;;;;2066822;28;20206;-62
2022/01/29 03:43:02;;;;;;;9.00;8.20;;;;;20.50;101499.00;;;;2064202;28;20498;-62
2022/01/29 03:44:05;;;;;;;9.60;8.65;;;;;20.50;101510.00;;;;2066770;28;20234;-62
2022/01/29 03:45:07;;;;;;;8.90;8.05;;;;;20.50;101503.00;;;;2067639;28;20227;-62
2022/01/29 03:46:08;;;;;;;9.80;8.88;;;;;20.50;101509.00;;;;2066107;28;20234;-62
2022/01/29 03:47:08;;;;;;;9.27;8.37;;;;;20.50;101504.00;;;;2058013;28;20218;-62
2022/01/29 03:48:09;;;;;;;9.00;8.10;;;;;20.50;101514.00;;;;2056149;28;20265;-62
2022/01/29 03:49:09;;;;;;;9.30;8.40;;;;;20.50;101498.00;;;;2058050;28;20326;-62
2022/01/29 03:50:09;;;;;;;9.23;8.33;;;;;20.50;101504.00;;;;2066685;28;20235;-62
2022/01/29 03:51:10;;;;;;;8.93;8.03;;;;;20.50;101507.00;;;;2067515;28;20222;-62
2022/01/29 03:52:10;;;;;;;10.03;8.73;;;;;20.50;101500.00;;;;2064806;28;20703;-62
2022/01/29 03:53:10;;;;;;;9.17;8.27;;;;;20.40;101499.00;;;;2067670;28;20749;-62
2022/01/29 03:54:11;;;;;;;8.53;7.70;;;;;20.50;101500.00;;;;2067238;28;20728;-62
2022/01/29 03:55:11;;;;;;;9.40;8.33;;;;;20.50;101498.00;;;;2066014;28;20244;-61
2022/01/29 03:56:11;;;;;;;8.63;7.80;;;;;20.50;101496.00;;;;2066058;28;20333;-62
2022/01/29 03:57:12;;;;;;;9.13;8.33;;;;;20.40;101494.00;;;;2065803;28;20294;-61
2022/01/29 03:58:12;;;;;;;9.63;8.73;;;;;20.40;101493.00;;;;2065933;28;20242;-62
2022/01/29 03:59:12;;;;;;;9.57;8.67;;;;;20.40;101477.00;;;;2067519;28;20218;-62
2022/01/29 04:00:13;;;;;;;9.60;7.77;;;;;20.40;101499.00;;;;2067625;28;20211;-62
2022/01/29 04:01:13;;;;;;;9.70;8.70;;;;;20.50;101489.00;;;;2066670;28;20376;-62
2022/01/29 04:02:13;;;;;;;8.47;7.70;;;;;20.40;101483.00;;;;2063249;28;20236;-62
2022/01/29 04:03:14;;;;;;;9.70;8.80;;;;;20.40;101486.00;;;;2066605;28;20214;-62
2022/01/29 04:04:14;;;;;;;8.90;8.03;;;;;20.40;101484.00;;;;2066584;28;20214;-62
2022/01/29 04:05:17;;;;;;;8.87;7.97;;;;;20.40;101487.00;;;;2066890;28;20206;-62
2022/01/29 04:06:17;;;;;;;9.85;8.95;;;;;20.40;101484.00;;;;2066053;28;20226;-62
2022/01/29 04:07:17;;;;;;;9.70;8.13;;;;;20.40;101481.00;;;;2066057;28;20207;-62
2022/01/29 04:08:18;;;;;;;9.10;8.20;;;;;20.40;101477.00;;;;2067491;28;20572;-62
2022/01/29 04:09:20;;;;;;;9.40;8.50;;;;;20.40;101480.00;;;;2067184;28;20702;-62
2022/01/29 04:10:22;;;;;;;8.60;7.70;;;;;20.40;101467.00;;;;2067392;28;20453;-62
2022/01/29 04:11:23;;;;;;;8.50;7.70;;;;;20.40;101477.00;;;;2063220;28;20248;-62
2022/01/29 04:12:25;;;;;;;8.70;7.80;;;;;20.40;101483.00;;;;2066748;28;20221;-62
2022/01/29 04:13:27;;;;;;;8.25;7.45;;;;;20.40;101478.00;;;;2065852;28;20302;-62
2022/01/29 04:14:34;;;;;;;9.60;8.70;;;;;20.40;101476.00;;;;2066182;28;20257;-62
2022/01/29 04:15:34;;;;;;;8.60;7.80;;;;;20.40;101474.00;;;;2067630;28;20295;-62
2022/01/29 04:16:34;;;;;;;9.03;8.13;;;;;20.40;101475.00;;;;2067621;28;20709;-62
2022/01/29 04:17:35;;;;;;;8.93;8.03;;;;;20.40;101468.00;;;;2066837;28;20999;-62
2022/01/29 04:18:35;;;;;;;8.57;7.67;;;;;20.40;101465.00;;;;2061807;28;20709;-62
2022/01/29 04:19:35;;;;;;;9.10;7.97;;;;;20.40;101469.00;;;;2066475;28;20305;-62
2022/01/29 04:20:36;;;;;;;9.57;8.07;;;;;20.40;101462.00;;;;2066297;28;20257;-62
2022/01/29 04:21:36;;;;;;;8.80;7.87;;;;;20.40;101467.00;;;;2066771;28;20288;-62
2022/01/29 04:22:36;;;;;;;8.60;7.77;;;;;20.40;101465.00;;;;2067392;28;20222;-62
2022/01/29 04:23:37;;;;;;;9.00;8.10;;;;;20.40;101466.00;;;;2067028;28;20214;-62
2022/01/29 04:24:37;;;;;;;8.40;7.63;;;;;20.30;101455.00;;;;2066582;28;20211;-62
2022/01/29 04:25:37;;;;;;;8.30;7.50;;;;;20.30;101458.00;;;;2066639;28;20402;-62
2022/01/29 04:26:38;;;;;;;8.40;7.50;;;;;20.40;101459.00;;;;2066924;28;20233;-62
2022/01/29 04:27:44;;;;;;;8.57;7.67;;;;;20.40;101452.00;;;;2066588;28;20279;-62
2022/01/29 04:28:45;;;;;;;8.73;7.78;;;;;20.40;101462.00;;;;2066630;28;20221;-62
2022/01/29 04:29:55;;;;;;;8.65;7.75;;;;;20.40;101455.00;;;;2067213;28;20215;-62
2022/01/29 04:31:02;;;;;;;10.38;7.45;;;;;20.40;101464.00;;;;2067168;28;20217;-62
2022/01/29 04:32:11;;;;;;;8.13;7.32;;;;;20.40;101463.00;;;;2066730;28;20214;-62
2022/01/29 04:33:33;;;;;;;8.95;8.05;;;;;20.30;101464.00;;;;2066236;28;20246;-62
2022/01/29 04:34:32;;;;;;;7.70;7.00;;;;;20.30;101468.00;;;;2064536;28;20233;-62
2022/01/29 04:35:33;;;;;;;8.70;7.90;;;;;20.30;101471.00;;;;2066605;28;20276;-62
2022/01/29 04:36:33;;;;;;;7.90;7.20;;;;;20.30;101466.00;;;;2067295;28;20217;-62
2022/01/29 04:37:34;;;;;;;8.13;7.40;;;;;20.30;101473.00;;;;2063774;28;20223;-61
2022/01/29 04:38:34;;;;;;;8.33;7.53;;;;;20.30;101468.00;;;;2063650;28;20222;-62
2022/01/29 04:39:34;;;;;;;9.00;7.40;;;;;20.40;101471.00;;;;2056711;28;20280;-62
2022/01/29 04:40:35;;;;;;;8.13;7.33;;;;;20.30;101469.00;;;;2066736;28;20214;-62
2022/01/29 04:41:35;;;;;;;8.13;7.23;;;;;20.40;101469.00;;;;2071765;28;20222;-62
2022/01/29 04:42:36;;;;;;;8.40;7.60;;;;;20.30;101474.00;;;;2057113;28;20715;-62
2022/01/29 04:43:36;;;;;;;7.97;7.23;;;;;20.40;101459.00;;;;2067081;28;20645;-62
2022/01/29 04:44:36;;;;;;;7.80;7.03;;;;;20.30;101476.00;;;;2067756;28;20225;-62
2022/01/29 04:45:37;;;;;;;8.03;7.20;;;;;20.30;101460.00;;;;2068551;28;20297;-62
2022/01/29 04:46:37;;;;;;;7.70;6.90;;;;;20.30;101464.00;;;;2068226;28;20254;-62
2022/01/29 04:47:37;;;;;;;7.50;6.80;;;;;20.30;101463.00;;;;2066041;28;20215;-62
2022/01/29 04:48:38;;;;;;;8.07;7.37;;;;;20.30;101458.00;;;;2057643;28;20221;-62
2022/01/29 04:49:38;;;;;;;7.83;7.13;;;;;20.30;101458.00;;;;2066933;28;20254;-62
2022/01/29 04:50:38;;;;;;;8.53;7.67;;;;;20.30;101459.00;;;;2070416;28;20229;-62
2022/01/29 04:51:39;;;;;;;7.37;6.57;;;;;20.30;101451.00;;;;2067979;28;20219;-62
2022/01/29 04:52:39;;;;;;;7.10;6.40;;;;;20.30;101453.00;;;;2067959;28;20219;-62
2022/01/29 04:53:40;;;;;;;7.53;6.83;;;;;20.30;101454.00;;;;2068661;28;20338;-62
2022/01/29 04:54:41;;;;;;;7.90;7.13;;;;;20.30;101454.00;;;;2068717;28;20227;-62
2022/01/29 04:55:41;;;;;;;7.27;6.67;;;;;20.30;101450.00;;;;2068848;28;20218;-61
2022/01/29 04:56:41;;;;;;;7.03;6.33;;;;;20.30;101448.00;;;;2060398;28;20218;-62
2022/01/29 04:57:41;;;;;;;7.10;6.50;;;;;20.30;101440.00;;;;2068181;28;20256;-62
2022/01/29 04:58:42;;;;;;;7.67;6.87;;;;;20.30;101441.00;;;;2067921;28;20213;-62